Airport View

Enter AWOS ICAO identifier for current METAR.

ex. KFNL

KCJR 210015Z AUTO 00000KT 10SM CLR 17/12 A3023 RMK AO2 T01690118

21 Sep 2019 00:48

Frequency: 119.325

Phone: 540-727-0523

Other Area AWOS: KHWY - KOMH - KHEF - KRMN

TAF KNYG 2021/2121 17008KT 9999 FEW200 QNH3009INS BECMG 2118/2120 VRB15G20KT 4800 TSRA BR BKN050CB OVC100 QNH3009INS LAST NO AMDS AFT 2021 NEXT 2109 T14/2111Z T26/2121Z